Time;durP1;ratioP1;P1;durP2;ratioP2;P2;SDS_P1;SDS_P2;PMS_P1;PMS_P2;Temp;Humidity;BMP_temperature;BMP_pressure;BME280_temperature;BME280_humidity;BME280_pressure;Samples;Min_cycle;Max_cycle;Signal;HPM_P1;HPM_P2
2022/05/23 00:01:15;;;;;;;11.55;4.70;;;18.90;99.90;;;;;;5034760;28;20133;-67
2022/05/23 00:03:41;;;;;;;12.65;4.63;;;19.20;99.90;;;;;;5034006;28;20033;-67
2022/05/23 00:06:07;;;;;;;12.60;4.78;;;19.30;99.90;;;;;;5036175;28;20029;-67
2022/05/23 00:08:33;;;;;;;13.77;4.57;;;19.10;99.90;;;;;;5036011;28;20030;-67
2022/05/23 00:10:59;;;;;;;16.80;4.63;;;19.40;99.90;;;;;;5035437;28;20033;-67
2022/05/23 00:13:25;;;;;;;15.32;4.68;;;19.30;99.90;;;;;;5035685;28;20025;-67
2022/05/23 00:15:50;;;;;;;14.30;4.47;;;19.20;99.90;;;;;;5032345;28;20041;-68
2022/05/23 00:18:16;;;;;;;11.35;4.45;;;18.90;99.90;;;;;;5038543;28;20466;-67
2022/05/23 00:20:42;;;;;;;14.27;4.78;;;19.00;99.90;;;;;;5034544;28;20109;-67
2022/05/23 00:23:08;;;;;;;13.13;4.55;;;19.20;99.90;;;;;;5035841;28;20071;-67
2022/05/23 00:25:34;;;;;;;17.10;5.15;;;19.00;99.90;;;;;;5036368;28;20127;-67
2022/05/23 00:28:00;;;;;;;13.10;4.28;;;19.10;99.90;;;;;;5032026;28;20105;-68
2022/05/23 00:30:27;;;;;;;15.93;4.45;;;19.20;99.90;;;;;;5037609;28;20462;-67
2022/05/23 00:35:39;;;;;;;15.88;4.60;;;19.20;99.90;;;;;;5034047;28;20040;-68
2022/05/23 00:38:05;;;;;;;12.63;4.45;;;19.30;99.90;;;;;;5035433;28;20041;-67
2022/05/23 00:40:30;;;;;;;12.85;4.50;;;19.10;99.90;;;;;;5034901;28;20485;-68
2022/05/23 00:43:14;;;;;;;11.43;3.95;;;19.20;99.90;;;;;;5030901;28;20029;-67
2022/05/23 00:45:46;;;;;;;10.50;4.22;;;19.30;99.90;;;;;;5044996;28;20477;-67
2022/05/23 00:48:14;;;;;;;15.18;4.63;;;19.30;99.90;;;;;;5035696;28;20111;-67
2022/05/23 00:50:44;;;;;;;10.57;4.40;;;19.30;99.90;;;;;;5035272;28;20037;-67
2022/05/23 00:53:10;;;;;;;13.15;4.05;;;19.60;99.90;;;;;;5035452;28;20478;-68
2022/05/23 00:55:44;;;;;;;10.40;4.20;;;19.60;99.90;;;;;;5035427;28;20481;-68
2022/05/23 00:58:21;;;;;;;11.25;4.50;;;19.70;99.90;;;;;;5031423;28;20026;-68
2022/05/23 01:00:48;;;;;;;17.92;5.22;;;19.40;99.90;;;;;;5032146;28;20413;-67
2022/05/23 01:03:16;;;;;;;15.63;5.03;;;19.30;99.90;;;;;;5037100;28;20467;-68
2022/05/23 01:05:42;;;;;;;12.93;5.00;;;19.00;99.90;;;;;;5034912;28;20029;-68
2022/05/23 01:08:08;;;;;;;12.82;5.03;;;19.10;99.90;;;;;;5035587;28;20021;-67
2022/05/23 01:10:36;;;;;;;16.98;5.78;;;19.00;99.90;;;;;;5035229;28;20017;-67
2022/05/23 01:13:02;;;;;;;17.77;5.22;;;18.80;99.90;;;;;;5030166;28;20387;-68
2022/05/23 01:15:30;;;;;;;16.38;5.40;;;18.90;99.90;;;;;;5035878;28;20097;-67
2022/05/23 01:17:56;;;;;;;22.50;5.35;;;18.90;99.90;;;;;;5034241;28;20021;-67
2022/05/23 01:20:23;;;;;;;19.25;5.88;;;19.10;99.90;;;;;;5034666;28;20029;-68
2022/05/23 01:23:08;;;;;;;18.45;6.03;;;19.10;99.90;;;;;;5035298;28;20417;-68
2022/05/23 01:25:41;;;;;;;16.60;5.97;;;19.00;99.90;;;;;;5034968;28;20051;-68
2022/05/23 01:28:07;;;;;;;;;;;19.20;99.90;;;;;;5032403;28;20486;-68
2022/05/23 01:30:34;;;;;;;17.80;5.40;;;19.20;99.90;;;;;;5034702;28;20019;-68
2022/05/23 01:33:01;;;;;;;16.50;5.85;;;18.90;99.90;;;;;;5035682;28;20475;-68
2022/05/23 01:35:27;;;;;;;15.68;5.90;;;18.80;99.90;;;;;;5034773;28;20125;-68
2022/05/23 01:37:53;;;;;;;17.73;6.40;;;19.00;99.90;;;;;;5033102;28;20060;-67
2022/05/23 01:40:20;;;;;;;16.42;6.30;;;19.10;99.90;;;;;;5033209;28;20478;-68
2022/05/23 01:42:46;;;;;;;16.90;6.47;;;18.80;99.90;;;;;;5031584;28;20033;-68
2022/05/23 01:45:15;;;;;;;20.33;5.93;;;18.90;99.90;;;;;;5036629;28;20481;-67
2022/05/23 01:47:41;;;;;;;17.60;5.93;;;18.90;99.90;;;;;;5034534;28;20037;-68
2022/05/23 01:50:07;;;;;;;14.38;5.65;;;18.80;99.90;;;;;;5034606;28;20118;-67
2022/05/23 01:52:33;;;;;;;18.98;6.55;;;18.80;99.90;;;;;;5032415;28;20535;-67
2022/05/23 01:54:59;;;;;;;16.85;5.85;;;18.80;99.90;;;;;;5030182;28;20029;-68
2022/05/23 01:57:25;;;;;;;14.25;5.85;;;18.70;99.90;;;;;;5036199;28;20026;-67
2022/05/23 02:02:36;;;;;;;16.15;6.20;;;19.00;99.90;;;;;;5034308;28;20095;-67
2022/05/23 02:05:03;;;;;;;20.05;6.45;;;18.50;99.90;;;;;;5034409;28;20083;-68
2022/05/23 02:07:30;;;;;;;21.40;7.25;;;18.50;99.90;;;;;;5034125;28;20025;-67
2022/05/23 02:09:55;;;;;;;20.67;7.90;;;18.30;99.90;;;;;;5014240;28;20401;-67
2022/05/23 02:12:21;;;;;;;18.60;6.65;;;18.10;99.90;;;;;;5036694;28;20033;-67
2022/05/23 02:14:49;;;;;;;17.98;6.85;;;18.40;99.90;;;;;;5033843;28;20037;-67
2022/05/23 02:17:16;;;;;;;18.83;7.28;;;18.30;99.90;;;;;;5032508;28;20037;-68
2022/05/23 02:19:42;;;;;;;18.48;6.10;;;18.20;99.90;;;;;;5034022;28;20436;-67
2022/05/23 02:22:08;;;;;;;18.50;6.25;;;18.20;99.90;;;;;;5031682;28;20117;-67
2022/05/23 02:24:34;;;;;;;20.23;6.80;;;18.30;99.90;;;;;;5034182;28;20457;-67
2022/05/23 02:26:59;;;;;;;21.02;6.75;;;18.40;99.90;;;;;;5034930;28;20029;-67
2022/05/23 02:29:25;;;;;;;16.23;5.95;;;18.20;99.90;;;;;;5033936;28;20049;-68
2022/05/23 02:31:51;;;;;;;15.77;6.15;;;18.40;99.90;;;;;;5032440;28;20482;-67
2022/05/23 02:34:18;;;;;;;16.83;6.28;;;18.80;99.90;;;;;;5032292;28;20068;-68
2022/05/23 02:36:45;;;;;;;16.42;6.15;;;18.50;99.90;;;;;;5031583;28;20041;-66
2022/05/23 02:39:11;;;;;;;17.65;5.90;;;18.70;99.90;;;;;;5035826;28;20438;-68
2022/05/23 02:41:37;;;;;;;14.52;5.80;;;18.60;99.90;;;;;;5034240;28;20037;-67
2022/05/23 02:44:03;;;;;;;15.20;5.40;;;18.70;99.90;;;;;;5033842;28;20083;-67
2022/05/23 02:46:28;;;;;;;21.25;5.60;;;18.50;99.90;;;;;;5033605;28;20033;-67
2022/05/23 02:48:55;;;;;;;12.20;5.20;;;18.80;99.90;;;;;;5030051;28;20109;-68
2022/05/23 02:51:22;;;;;;;13.30;5.10;;;18.60;99.90;;;;;;5035779;28;20034;-66
2022/05/23 02:53:49;;;;;;;12.98;5.00;;;18.70;99.90;;;;;;5033634;28;20053;-67
2022/05/23 02:56:16;;;;;;;15.07;4.90;;;18.70;99.90;;;;;;5032661;28;20144;-67
2022/05/23 02:58:42;;;;;;;14.98;5.10;;;18.80;99.90;;;;;;5033518;28;20059;-67
2022/05/23 03:01:09;;;;;;;16.75;5.50;;;18.60;99.90;;;;;;5030827;28;20018;-67
2022/05/23 03:03:35;;;;;;;13.50;4.72;;;18.40;99.90;;;;;;5034726;28;20082;-67
2022/05/23 03:06:01;;;;;;;15.70;4.93;;;18.60;99.90;;;;;;5038352;28;20061;-66
2022/05/23 03:08:28;;;;;;;16.95;5.05;;;18.70;99.90;;;;;;5037510;28;20034;-68
2022/05/23 03:11:00;;;;;;;16.20;5.13;;;18.90;99.90;;;;;;5034719;28;20122;-67
2022/05/23 03:13:27;;;;;;;16.73;5.22;;;18.40;99.90;;;;;;5036672;28;20033;-67
2022/05/23 03:15:53;;;;;;;14.20;5.10;;;18.50;99.90;;;;;;5032864;28;20819;-67
2022/05/23 03:18:19;;;;;;;15.65;4.72;;;18.80;99.90;;;;;;5039665;28;20040;-67
2022/05/23 03:20:45;;;;;;;12.05;4.30;;;19.00;99.90;;;;;;5037167;28;20091;-67
2022/05/23 03:28:42;;;;;;;14.43;5.13;;;18.50;99.90;;;;;;5037466;28;20040;-68
2022/05/23 03:31:08;;;;;;;15.68;4.50;;;18.30;99.90;;;;;;5033826;28;20030;-67
2022/05/23 03:33:34;;;;;;;16.65;4.97;;;18.40;99.90;;;;;;5036826;28;20029;-67
2022/05/23 03:36:00;;;;;;;14.30;4.50;;;18.30;99.90;;;;;;5036460;28;20128;-67
2022/05/23 03:38:27;;;;;;;8.25;3.63;;;18.20;99.90;;;;;;5036819;28;20037;-67
2022/05/23 03:40:53;;;;;;;14.38;4.82;;;18.60;99.90;;;;;;5036846;28;20091;-67
2022/05/23 03:43:18;;;;;;;12.82;4.25;;;18.90;99.90;;;;;;5035474;28;20056;-67
2022/05/23 03:45:44;;;;;;;16.50;4.35;;;18.40;99.90;;;;;;5033654;28;20041;-67
2022/05/23 03:48:10;;;;;;;11.70;4.07;;;18.60;99.90;;;;;;5038770;28;20091;-67
2022/05/23 03:50:37;;;;;;;11.02;4.00;;;18.90;99.90;;;;;;5035224;28;20104;-67
2022/05/23 03:53:03;;;;;;;13.23;4.65;;;18.80;99.90;;;;;;5036542;28;20053;-67
2022/05/23 03:55:30;;;;;;;16.88;4.55;;;18.40;99.90;;;;;;5036557;28;20032;-67
2022/05/23 03:57:56;;;;;;;15.38;4.55;;;18.60;99.90;;;;;;5016816;28;20025;-67
2022/05/23 04:00:23;;;;;;;12.88;4.10;;;18.90;99.90;;;;;;5038158;28;20040;-67
2022/05/23 04:02:49;;;;;;;11.57;4.20;;;18.40;99.90;;;;;;5036337;28;20029;-67
2022/05/23 04:05:17;;;;;;;15.93;4.60;;;18.70;99.90;;;;;;5036404;28;20037;-67
2022/05/23 04:07:43;;;;;;;18.58;4.53;;;18.60;99.90;;;;;;5036700;28;20474;-66
2022/05/23 04:10:16;;;;;;;10.00;3.92;;;18.90;99.90;;;;;;5033874;28;20026;-67
2022/05/23 04:12:43;;;;;;;16.65;4.95;;;19.00;99.90;;;;;;5034544;28;20029;-67
2022/05/23 04:15:09;;;;;;;13.88;3.97;;;18.50;99.90;;;;;;5035259;28;20038;-67
2022/05/23 04:17:35;;;;;;;19.30;4.88;;;18.30;99.90;;;;;;5036203;28;20033;-67
2022/05/23 04:20:01;;;;;;;14.77;4.55;;;18.80;99.90;;;;;;5036128;28;20045;-67
2022/05/23 04:22:27;;;;;;;16.02;4.50;;;18.30;99.90;;;;;;5034903;28;20108;-67
2022/05/23 04:24:52;;;;;;;17.60;4.88;;;18.30;99.90;;;;;;5031988;28;20071;-67
2022/05/23 04:27:18;;;;;;;13.35;4.47;;;18.40;99.90;;;;;;5037894;28;20025;-67
2022/05/23 04:29:44;;;;;;;15.95;4.38;;;18.80;99.90;;;;;;5033168;28;20401;-67
2022/05/23 04:35:12;;;;;;;19.25;5.05;;;18.50;99.90;;;;;;5036392;28;20033;-67
2022/05/23 04:37:38;;;;;;;18.80;5.03;;;18.40;99.90;;;;;;5035528;28;20524;-67
2022/05/23 04:40:05;;;;;;;19.48;4.55;;;18.80;99.90;;;;;;5031023;28;20029;-67
2022/05/23 04:42:31;;;;;;;18.08;4.80;;;18.90;99.90;;;;;;5035740;28;20112;-67
2022/05/23 04:44:56;;;;;;;20.20;4.97;;;18.90;99.90;;;;;;5036225;28;20112;-67
2022/05/23 04:50:07;;;;;;;18.83;4.70;;;19.00;99.90;;;;;;5036165;28;20029;-67
2022/05/23 04:52:33;;;;;;;20.30;4.43;;;18.40;99.90;;;;;;5034233;28;20025;-67
2022/05/23 04:54:58;;;;;;;20.40;4.60;;;18.80;99.90;;;;;;5031120;28;20613;-67
2022/05/23 04:57:24;;;;;;;21.30;4.90;;;19.00;99.90;;;;;;5036821;28;20037;-67
2022/05/23 04:59:50;;;;;;;17.00;4.50;;;18.80;99.90;;;;;;5035382;28;20097;-67
2022/05/23 05:02:15;;;;;;;16.38;4.40;;;19.00;99.90;;;;;;5035372;28;20516;-68
2022/05/23 05:04:41;;;;;;;18.67;5.68;;;18.90;99.90;;;;;;5035209;28;20074;-68
2022/05/23 05:07:07;;;;;;;18.98;4.55;;;18.90;99.90;;;;;;5030783;28;20454;-67
2022/05/23 05:09:33;;;;;;;22.83;5.30;;;18.80;99.90;;;;;;5035343;28;20044;-68
2022/05/23 05:11:59;;;;;;;20.77;4.85;;;19.00;99.90;;;;;;5035698;28;20491;-68
2022/05/23 05:14:27;;;;;;;15.00;3.97;;;18.70;99.90;;;;;;5035108;28;20128;-67
2022/05/23 05:16:53;;;;;;;12.25;3.70;;;19.70;99.90;;;;;;5035038;28;20045;-67
2022/05/23 05:19:19;;;;;;;13.70;4.63;;;20.00;99.90;;;;;;5034018;28;20408;-67
2022/05/23 05:21:45;;;;;;;20.45;4.15;;;20.10;99.90;;;;;;5031964;28;20509;-67
2022/05/23 05:24:11;;;;;;;14.23;3.58;;;20.00;99.90;;;;;;5037164;28;20041;-67
2022/05/23 05:26:37;;;;;;;16.45;4.30;;;20.00;99.90;;;;;;5034707;28;20120;-68
2022/05/23 05:29:04;;;;;;;14.88;3.85;;;20.30;99.90;;;;;;5034897;28;20068;-67
2022/05/23 05:31:37;;;;;;;15.68;4.10;;;20.50;99.90;;;;;;5033637;28;20079;-67
2022/05/23 05:34:13;;;;;;;15.00;3.83;;;20.50;99.90;;;;;;5030970;28;20041;-65
2022/05/23 05:36:45;;;;;;;16.25;3.88;;;20.80;99.90;;;;;;5029583;28;20041;-66
2022/05/23 05:39:14;;;;;;;13.13;3.70;;;20.80;99.90;;;;;;5034847;28;20073;-68
2022/05/23 05:41:54;;;;;;;14.63;3.55;;;20.60;99.90;;;;;;5039341;28;20047;-68
2022/05/23 05:44:25;;;;;;;13.18;3.38;;;20.30;99.90;;;;;;5034950;28;20025;-68
2022/05/23 05:46:55;;;;;;;13.90;3.70;;;20.00;99.90;;;;;;5029966;28;20444;-68
2022/05/23 05:49:25;;;;;;;13.20;3.58;;;20.20;99.90;;;;;;5029531;28;20025;-67
2022/05/23 05:51:55;;;;;;;11.27;3.45;;;20.10;99.90;;;;;;5031225;28;20040;-68
2022/05/23 05:54:24;;;;;;;15.45;2.95;;;20.20;99.90;;;;;;5033547;28;20048;-68
2022/05/23 05:56:51;;;;;;;14.30;3.30;;;20.00;99.90;;;;;;5030961;28;20052;-68
2022/05/23 05:59:18;;;;;;;12.70;3.53;;;20.00;99.90;;;;;;5031758;28;20116;-69
2022/05/23 06:01:44;;;;;;;11.63;3.40;;;20.10;99.90;;;;;;5031462;28;20022;-67
2022/05/23 06:04:10;;;;;;;12.10;3.22;;;19.90;99.90;;;;;;5029472;28;20029;-67
2022/05/23 06:12:04;;;;;;;9.27;2.88;;;20.00;99.90;;;;;;5035572;28;20028;-67
2022/05/23 06:14:30;;;;;;;13.32;3.35;;;19.80;99.90;;;;;;5031508;28;20026;-68
2022/05/23 06:16:56;;;;;;;11.32;3.33;;;19.70;99.90;;;;;;5031421;28;20045;-67
2022/05/23 06:19:22;;;;;;;16.02;3.40;;;19.70;99.90;;;;;;5029242;28;20052;-68
2022/05/23 06:21:47;;;;;;;13.45;3.20;;;19.70;99.90;;;;;;5031610;28;20088;-67
2022/05/23 06:24:14;;;;;;;11.02;3.20;;;19.60;99.90;;;;;;5031808;28;20045;-68
2022/05/23 06:26:40;;;;;;;14.63;3.13;;;19.70;99.90;;;;;;5031685;28;20040;-68
2022/05/23 06:29:06;;;;;;;15.40;3.60;;;19.60;99.90;;;;;;5034539;28;20021;-68
2022/05/23 06:31:32;;;;;;;14.30;3.42;;;19.50;99.90;;;;;;5044965;28;20025;-68
2022/05/23 06:33:58;;;;;;;14.45;3.50;;;19.80;99.90;;;;;;5028991;28;20053;-68
2022/05/23 06:36:23;;;;;;;16.52;3.40;;;19.60;99.90;;;;;;5035450;28;20108;-68
2022/05/23 06:38:49;;;;;;;12.88;3.75;;;20.10;99.90;;;;;;5033109;28;20053;-67
2022/05/23 06:41:15;;;;;;;13.00;3.35;;;20.00;99.90;;;;;;5037919;28;20045;-68
2022/05/23 06:43:43;;;;;;;13.25;3.00;;;20.00;99.90;;;;;;5037831;28;20022;-68
2022/05/23 06:46:10;;;;;;;13.90;3.15;;;20.00;99.90;;;;;;5035375;28;20212;-68
2022/05/23 06:48:37;;;;;;;14.32;3.20;;;19.70;99.90;;;;;;5036565;28;20032;-68
2022/05/23 06:51:03;;;;;;;10.75;2.95;;;19.80;99.90;;;;;;5039416;28;20029;-69
2022/05/23 06:53:30;;;;;;;12.60;3.50;;;19.80;99.90;;;;;;5032908;28;20041;-68
2022/05/23 06:55:56;;;;;;;13.35;3.22;;;19.70;99.90;;;;;;5032906;28;20524;-67
2022/05/23 06:58:23;;;;;;;12.88;3.55;;;19.80;99.90;;;;;;5033050;28;20033;-69
2022/05/23 07:00:49;;;;;;;11.48;3.00;;;19.90;99.90;;;;;;5033245;28;20104;-67
2022/05/23 07:03:16;;;;;;;13.52;3.88;;;19.80;99.90;;;;;;5032854;28;20013;-68
2022/05/23 07:13:56;;;;;;;16.60;3.25;;;19.80;99.90;;;;;;5031954;28;20076;-67
2022/05/23 07:16:22;;;;;;;17.50;3.63;;;19.80;99.90;;;;;;5032790;28;20037;-68
2022/05/23 07:18:49;;;;;;;16.27;3.58;;;19.60;99.90;;;;;;5032251;28;20030;-67
2022/05/23 07:21:15;;;;;;;12.52;3.58;;;19.60;99.90;;;;;;5034863;28;20489;-68
2022/05/23 07:23:42;;;;;;;20.98;3.67;;;19.60;99.90;;;;;;5036806;28;20037;-68
2022/05/23 07:26:10;;;;;;;15.00;3.60;;;19.70;99.90;;;;;;5036910;28;20029;-67
2022/05/23 07:28:36;;;;;;;15.35;3.15;;;19.60;99.90;;;;;;5037086;28;20482;-68
2022/05/23 07:31:03;;;;;;;13.80;3.70;;;19.70;99.90;;;;;;5032661;28;20029;-68
2022/05/23 07:33:30;;;;;;;12.43;3.67;;;19.90;99.90;;;;;;5036322;28;20072;-68
2022/05/23 07:36:00;;;;;;;13.73;3.13;;;19.70;99.90;;;;;;5035839;28;20038;-68
2022/05/23 07:38:28;;;;;;;16.35;3.42;;;19.70;99.90;;;;;;5036159;28;20069;-68
2022/05/23 07:40:55;;;;;;;15.10;3.42;;;19.50;99.90;;;;;;5033109;28;20035;-68
2022/05/23 07:43:22;;;;;;;13.55;3.33;;;19.60;99.90;;;;;;5032720;28;20390;-67
2022/05/23 07:45:49;;;;;;;11.93;2.83;;;19.60;99.90;;;;;;5031953;28;20040;-67
2022/05/23 07:48:15;;;;;;;15.05;3.55;;;19.60;99.90;;;;;;5035783;28;20068;-67
2022/05/23 07:50:43;;;;;;;13.30;3.35;;;19.60;99.90;;;;;;5040799;28;20036;-68
2022/05/23 08:01:22;;;;;;;14.93;3.38;;;19.70;99.90;;;;;;5032394;28;20040;-66
2022/05/23 08:03:47;;;;;;;12.63;2.80;;;19.70;99.90;;;;;;5032934;28;20041;-68
2022/05/23 08:06:14;;;;;;;12.10;3.10;;;19.80;99.90;;;;;;5037355;28;20075;-68
2022/05/23 08:08:40;;;;;;;10.70;3.00;;;19.70;99.90;;;;;;5035493;28;20036;-68
2022/05/23 08:11:08;;;;;;;15.20;3.50;;;19.80;99.90;;;;;;5035695;28;20096;-68
2022/05/23 08:13:38;;;;;;;12.65;3.30;;;19.90;99.90;;;;;;5035810;28;20033;-68
2022/05/23 08:16:05;;;;;;;16.67;3.58;;;19.90;99.90;;;;;;5032480;28;20116;-68
2022/05/23 08:18:31;;;;;;;12.45;2.90;;;20.00;99.90;;;;;;5036313;28;20053;-68
2022/05/23 08:20:57;;;;;;;15.70;3.55;;;20.00;99.90;;;;;;5036397;28;20076;-68
2022/05/23 08:23:23;;;;;;;14.25;3.05;;;20.10;99.90;;;;;;5034617;28;20029;-68
2022/05/23 08:25:48;;;;;;;15.70;3.20;;;19.90;99.90;;;;;;5035955;28;20021;-71
2022/05/23 08:28:14;;;;;;;14.52;3.10;;;20.00;99.90;;;;;;5034130;28;20025;-68
2022/05/23 08:30:40;;;;;;;13.23;2.90;;;20.30;99.90;;;;;;5034193;28;20052;-68
2022/05/23 08:33:06;;;;;;;15.80;3.55;;;20.40;99.90;;;;;;5036352;28;20025;-68
2022/05/23 08:35:33;;;;;;;12.88;2.88;;;20.60;99.90;;;;;;5035340;28;20418;-68
2022/05/23 08:37:59;;;;;;;12.60;2.97;;;20.50;99.90;;;;;;5035551;28;20045;-68
2022/05/23 08:40:49;;;;;;;11.23;2.80;;;20.70;99.90;;;;;;5034226;28;20057;-68
2022/05/23 08:43:43;;;;;;;10.07;2.70;;;20.50;99.90;;;;;;5020461;28;20032;-68
2022/05/23 08:46:17;;;;;;;11.15;2.70;;;20.90;99.90;;;;;;5017282;28;20077;-67
2022/05/23 08:48:57;;;;;;;10.77;2.50;;;21.10;99.90;;;;;;5032900;28;20029;-68
2022/05/23 08:51:54;;;;;;;10.82;2.80;;;21.00;99.90;;;;;;5037577;28;20129;-68
2022/05/23 08:54:46;;;;;;;9.48;2.78;;;21.10;99.90;;;;;;5011542;28;20044;-67
2022/05/23 08:57:29;;;;;;;11.57;2.90;;;21.30;99.90;;;;;;5003273;28;20080;-68
2022/05/23 09:00:00;;;;;;;9.87;2.70;;;21.30;99.90;;;;;;5010497;28;20057;-68
2022/05/23 09:02:41;;;;;;;9.40;2.47;;;21.30;99.90;;;;;;5009664;28;20285;-68
2022/05/23 09:05:20;;;;;;;10.70;2.70;;;21.30;99.90;;;;;;5010010;28;20042;-68
2022/05/23 09:07:55;;;;;;;8.70;2.45;;;21.30;99.90;;;;;;5009910;28;20033;-68
2022/05/23 09:10:27;;;;;;;12.18;2.80;;;21.80;99.90;;;;;;5010789;28;20029;-68
2022/05/23 09:12:53;;;;;;;11.10;2.78;;;22.30;99.90;;;;;;5010367;28;20029;-67
2022/05/23 09:15:20;;;;;;;9.35;2.67;;;22.30;99.90;;;;;;5010517;28;20044;-68
2022/05/23 09:17:53;;;;;;;7.47;1.95;;;23.10;99.90;;;;;;5009680;28;20125;-67
2022/05/23 09:20:42;;;;;;;8.75;2.13;;;22.90;99.90;;;;;;5010541;28;20093;-67
2022/05/23 09:23:18;;;;;;;10.73;2.47;;;22.00;99.90;;;;;;5010163;28;20029;-67
2022/05/23 09:25:44;;;;;;;11.07;2.40;;;21.40;99.90;;;;;;5010005;28;20494;-67
2022/05/23 09:28:37;;;;;;;12.75;2.67;;;21.00;99.90;;;;;;5010462;28;20113;-68
2022/05/23 09:31:26;;;;;;;7.78;2.08;;;20.90;99.90;;;;;;5001967;28;20038;-67
2022/05/23 09:33:54;;;;;;;7.90;2.00;;;21.50;99.90;;;;;;5030657;28;20060;-67
2022/05/23 09:36:25;;;;;;;10.93;2.80;;;23.30;99.90;;;;;;5036744;28;20025;-68
2022/05/23 09:39:20;;;;;;;8.07;2.38;;;24.40;99.90;;;;;;5034758;28;20103;-67
2022/05/23 09:47:45;;;;;;;8.93;2.38;;;23.00;99.90;;;;;;5034643;28;20041;-67
2022/05/23 09:50:27;;;;;;;8.43;2.30;;;24.10;99.90;;;;;;5034494;28;20545;-68
2022/05/23 09:52:56;;;;;;;9.27;2.20;;;23.90;99.90;;;;;;5034471;28;20076;-67
2022/05/23 09:55:31;;;;;;;9.40;3.03;;;23.30;99.90;;;;;;5033236;28;20056;-67
2022/05/23 09:58:01;;;;;;;10.63;2.22;;;24.20;99.90;;;;;;5014289;28;20053;-67
2022/05/23 10:00:34;;;;;;;10.93;2.05;;;24.00;99.90;;;;;;5044249;28;20024;-67
2022/05/23 10:03:05;;;;;;;6.72;2.10;;;23.10;99.90;;;;;;5033822;28;20033;-67
2022/05/23 10:05:38;;;;;;;8.35;2.28;;;22.20;99.90;;;;;;5032925;28;20061;-66
2022/05/23 10:08:08;;;;;;;5.82;1.98;;;21.90;99.90;;;;;;5034679;28;20025;-67
2022/05/23 10:10:40;;;;;;;9.05;2.50;;;22.30;99.90;;;;;;5033941;28;20493;-67
2022/05/23 10:13:24;;;;;;;7.63;2.17;;;22.70;99.90;;;;;;5030504;28;20029;-67
2022/05/23 10:15:57;;;;;;;7.43;2.30;;;23.70;99.90;;;;;;5030578;28;20499;-67
2022/05/23 10:18:31;;;;;;;5.97;1.90;;;24.20;99.90;;;;;;5036423;28;20049;-67
2022/05/23 10:20:58;;;;;;;7.13;2.20;;;23.60;99.90;;;;;;5033310;28;20038;-67
2022/05/23 10:23:30;;;;;;;9.88;2.38;;;22.90;99.90;;;;;;5034290;28;20044;-67
2022/05/23 10:26:09;;;;;;;10.77;2.58;;;22.50;99.90;;;;;;5034200;28;20022;-66
2022/05/23 10:28:44;;;;;;;7.45;2.00;;;22.70;99.90;;;;;;5034403;28;20056;-66
2022/05/23 10:31:22;;;;;;;6.45;2.03;;;23.00;99.90;;;;;;5031165;28;20506;-67
2022/05/23 10:34:15;;;;;;;8.60;2.30;;;23.40;99.90;;;;;;5030934;28;20075;-66
2022/05/23 10:36:43;;;;;;;6.20;1.75;;;23.50;99.90;;;;;;5018046;28;20104;-66
2022/05/23 10:42:16;;;;;;;6.63;2.20;;;23.10;99.90;;;;;;5035231;28;20088;-66
2022/05/23 10:44:56;;;;;;;8.55;2.42;;;23.00;99.90;;;;;;5032465;28;20037;-66
2022/05/23 10:47:46;;;;;;;6.80;2.20;;;23.20;99.90;;;;;;5033970;28;20025;-66
2022/05/23 10:50:19;;;;;;;5.85;2.03;;;22.80;99.90;;;;;;5034012;28;20017;-66
2022/05/23 10:53:07;;;;;;;5.05;1.95;;;22.30;99.90;;;;;;5034137;28;20040;-65
2022/05/23 10:55:52;;;;;;;8.27;2.58;;;22.20;99.90;;;;;;5033876;28;20033;-66
2022/05/23 10:58:23;;;;;;;5.55;2.05;;;22.90;99.90;;;;;;5030621;28;20037;-67
2022/05/23 11:01:06;;;;;;;7.55;2.10;;;23.50;99.90;;;;;;5030257;28;20120;-67
2022/05/23 11:03:36;;;;;;;8.30;2.20;;;23.70;99.90;;;;;;5042206;28;20524;-66
2022/05/23 11:06:16;;;;;;;6.38;1.80;;;23.50;99.90;;;;;;5034835;28;20087;-65
2022/05/23 11:09:06;;;;;;;7.82;2.10;;;23.20;99.90;;;;;;5029072;28;20034;-67
2022/05/23 11:11:51;;;;;;;9.02;2.22;;;23.10;99.90;;;;;;5027145;28;20053;-65
2022/05/23 11:14:30;;;;;;;12.82;2.63;;;23.10;99.90;;;;;;5028454;28;20386;-66
2022/05/23 11:17:21;;;;;;;8.70;2.25;;;23.50;99.90;;;;;;5033722;28;20037;-65
2022/05/23 11:20:09;;;;;;;6.90;2.08;;;23.40;99.90;;;;;;5007787;28;20030;-66
2022/05/23 11:22:42;;;;;;;7.95;2.30;;;23.20;99.90;;;;;;5008297;28;20026;-66
2022/05/23 11:25:23;;;;;;;9.77;2.40;;;22.80;99.90;;;;;;5010894;28;20042;-65
2022/05/23 11:33:41;;;;;;;8.85;2.08;;;23.10;99.90;;;;;;5009372;28;20084;-66
2022/05/23 11:36:09;;;;;;;7.05;2.08;;;23.30;99.90;;;;;;5012159;28;20133;-66
2022/05/23 11:38:45;;;;;;;5.88;1.70;;;23.20;99.90;;;;;;5011902;28;20050;-66
2022/05/23 11:41:26;;;;;;;7.85;1.80;;;23.00;99.90;;;;;;5010886;28;20029;-66
2022/05/23 11:43:52;;;;;;;7.68;2.00;;;22.80;99.90;;;;;;5011169;28;20037;-66
2022/05/23 11:46:47;;;;;;;6.53;1.90;;;22.80;99.90;;;;;;5011661;28;20044;-67
2022/05/23 11:49:40;;;;;;;7.13;2.10;;;23.10;99.90;;;;;;4997966;28;20073;-66
2022/05/23 11:52:24;;;;;;;8.30;2.15;;;23.10;99.90;;;;;;4997206;28;20104;-66
2022/05/23 11:54:51;;;;;;;9.70;2.20;;;22.90;99.90;;;;;;5011532;28;20042;-67
2022/05/23 11:57:31;;;;;;;8.18;2.25;;;22.80;99.90;;;;;;5024591;28;20046;-66
2022/05/23 11:59:58;;;;;;;6.03;1.90;;;23.20;99.90;;;;;;5034934;28;20017;-65
2022/05/23 12:02:27;;;;;;;8.50;2.00;;;23.30;99.90;;;;;;5033629;28;20025;-67
2022/05/23 12:04:54;;;;;;;8.52;2.10;;;23.10;99.90;;;;;;5036432;28;20525;-66
2022/05/23 12:07:37;;;;;;;6.65;2.05;;;23.00;99.90;;;;;;5039573;28;20040;-65
2022/05/23 12:10:22;;;;;;;10.80;2.15;;;23.30;99.90;;;;;;5037588;28;20516;-65
2022/05/23 12:12:57;;;;;;;8.20;1.85;;;23.20;99.90;;;;;;5039242;28;20025;-65
2022/05/23 12:15:42;;;;;;;4.97;1.85;;;23.30;99.90;;;;;;5042652;28;20033;-66
2022/05/23 12:18:11;;;;;;;6.85;1.60;;;23.40;99.90;;;;;;5042470;28;20562;-65
2022/05/23 12:20:45;;;;;;;7.22;1.83;;;23.30;99.90;;;;;;5035902;28;20048;-65
2022/05/23 12:23:35;;;;;;;6.20;1.95;;;22.90;99.90;;;;;;5035967;28;20044;-65
2022/05/23 12:26:07;;;;;;;6.38;2.00;;;22.70;99.90;;;;;;5035744;28;20029;-66
2022/05/23 12:28:45;;;;;;;7.70;1.95;;;22.50;99.90;;;;;;5036446;28;20024;-65
2022/05/23 12:31:16;;;;;;;8.75;2.20;;;22.30;99.90;;;;;;5032723;28;20022;-66
2022/05/23 12:33:49;;;;;;;6.38;2.08;;;22.30;99.90;;;;;;5034067;28;20051;-63
2022/05/23 12:36:20;;;;;;;9.30;1.90;;;22.40;99.90;;;;;;5035882;28;20112;-63
2022/05/23 12:39:12;;;;;;;9.60;2.15;;;22.20;99.90;;;;;;5035859;28;20087;-63
2022/05/23 12:42:15;;;;;;;9.68;2.00;;;22.00;99.90;;;;;;5034165;28;20902;-62
2022/05/23 12:44:49;;;;;;;7.20;1.90;;;22.10;99.90;;;;;;5035959;28;20030;-63
2022/05/23 12:47:33;;;;;;;7.40;2.10;;;22.20;99.90;;;;;;5035798;28;20029;-63
2022/05/23 12:50:18;;;;;;;;;;;22.40;99.90;;;;;;5036116;28;20059;-63
2022/05/23 12:53:02;;;;;;;4.85;1.95;;;22.60;99.90;;;;;;5035586;28;19909;-63
2022/05/23 12:55:48;;;;;;;8.45;1.83;;;22.30;99.90;;;;;;5033291;28;20481;-63
2022/05/23 12:58:25;;;;;;;5.55;1.80;;;22.10;99.90;;;;;;5019131;28;20520;-62
2022/05/23 13:00:59;;;;;;;7.47;2.10;;;21.90;99.90;;;;;;5032212;28;20490;-63
2022/05/23 13:03:39;;;;;;;9.05;2.03;;;21.70;99.90;;;;;;5037220;28;20022;-63
2022/05/23 13:06:20;;;;;;;7.63;2.00;;;21.80;99.90;;;;;;5036808;28;20116;-64
2022/05/23 13:08:55;;;;;;;9.43;2.08;;;21.50;99.90;;;;;;5035211;28;20033;-63
2022/05/23 13:11:52;;;;;;;9.32;2.10;;;21.50;99.90;;;;;;5034868;28;20026;-62
2022/05/23 13:14:17;;;;;;;8.35;2.30;;;21.60;99.90;;;;;;5034004;28;20128;-63
2022/05/23 13:16:57;;;;;;;7.38;2.20;;;21.70;99.90;;;;;;5035029;28;20195;-63
2022/05/23 13:22:20;;;;;;;6.85;1.95;;;22.40;99.90;;;;;;5017690;28;20063;-62
2022/05/23 13:24:59;;;;;;;8.07;2.38;;;22.80;99.90;;;;;;5031864;28;20029;-63
2022/05/23 13:27:27;;;;;;;6.45;2.22;;;23.40;99.90;;;;;;5048019;28;20067;-63
2022/05/23 13:30:14;;;;;;;6.40;1.90;;;23.40;99.90;;;;;;5035012;28;20044;-63
2022/05/23 13:32:40;;;;;;;7.28;1.75;;;23.30;99.90;;;;;;5034811;28;20037;-62
2022/05/23 13:35:19;;;;;;;5.88;1.52;;;23.40;99.90;;;;;;5033280;28;20029;-63
2022/05/23 13:37:45;;;;;;;6.97;1.90;;;23.00;99.90;;;;;;5034284;28;20561;-64
2022/05/23 13:40:14;;;;;;;7.63;2.30;;;22.90;99.90;;;;;;5031568;28;20053;-63
2022/05/23 13:42:40;;;;;;;9.05;2.45;;;23.10;99.90;;;;;;5034065;28;20394;-63
2022/05/23 13:45:18;;;;;;;7.68;1.75;;;23.10;99.90;;;;;;5036143;28;20425;-63
2022/05/23 13:48:07;;;;;;;8.90;2.15;;;22.90;99.90;;;;;;5033968;28;20033;-63
2022/05/23 13:50:41;;;;;;;8.55;2.00;;;22.60;99.90;;;;;;5034136;28;20022;-63
2022/05/23 13:53:10;;;;;;;10.35;2.33;;;22.30;99.90;;;;;;5034389;28;20025;-63
2022/05/23 13:55:55;;;;;;;9.88;2.20;;;22.50;99.90;;;;;;5034881;28;20041;-63